createdAt,value
2018-02-06T00:01:38.904Z,3.91
2018-02-06T00:04:06.539Z,3.88
2018-02-06T00:06:34.083Z,3.81
2018-02-06T00:09:01.569Z,3.77
2018-02-06T00:11:29.073Z,3.77
2018-02-06T00:13:56.563Z,3.65
2018-02-06T00:16:24.090Z,3.64
2018-02-06T00:18:51.628Z,3.69
2018-02-06T00:21:19.151Z,3.80
2018-02-06T00:23:46.640Z,3.85
2018-02-06T00:26:14.149Z,3.83
2018-02-06T00:28:41.646Z,3.80
2018-02-06T00:31:09.331Z,3.77
2018-02-06T00:33:36.828Z,3.81
2018-02-06T00:36:04.397Z,3.82
2018-02-06T00:38:32.017Z,3.88
2018-02-06T00:40:59.671Z,3.92
2018-02-06T00:43:27.337Z,3.88
2018-02-06T00:45:54.922Z,3.85
2018-02-06T00:48:22.438Z,3.82
2018-02-06T00:50:50.572Z,3.78
2018-02-06T00:53:18.163Z,3.72
2018-02-06T00:55:45.672Z,3.71
2018-02-06T00:58:13.151Z,3.69
2018-02-06T01:00:40.675Z,3.60
2018-02-06T01:03:08.166Z,3.62
2018-02-06T01:05:35.678Z,3.65
2018-02-06T01:08:03.188Z,3.72
2018-02-06T01:10:30.693Z,3.76
2018-02-06T01:12:58.234Z,3.81
2018-02-06T01:15:25.731Z,3.82
2018-02-06T01:17:53.427Z,3.78
2018-02-06T01:20:20.942Z,3.73
2018-02-06T01:22:48.511Z,3.73
2018-02-06T01:25:16.020Z,3.77
2018-02-06T01:27:43.500Z,3.84
2018-02-06T01:30:11.006Z,3.95
2018-02-06T01:32:38.495Z,4.01
2018-02-06T01:35:06.007Z,4.01
2018-02-06T01:37:33.490Z,4.07
2018-02-06T01:40:00.983Z,4.04
2018-02-06T01:42:28.464Z,3.97
2018-02-06T01:44:56.145Z,3.96
2018-02-06T01:47:23.666Z,3.95
2018-02-06T01:50:02.979Z,3.90
2018-02-06T01:52:30.549Z,3.80
2018-02-06T01:54:58.037Z,3.71
2018-02-06T01:57:25.551Z,3.64
2018-02-06T01:59:53.042Z,3.61
2018-02-06T02:02:20.545Z,3.62
2018-02-06T02:04:48.037Z,3.62
2018-02-06T02:07:15.555Z,3.59
2018-02-06T02:09:43.075Z,3.59
2018-02-06T02:12:10.585Z,3.53
2018-02-06T02:14:38.091Z,3.53
2018-02-06T02:17:05.572Z,3.56
2018-02-06T02:19:34.669Z,3.64
2018-02-06T02:22:02.117Z,3.71
2018-02-06T02:24:29.655Z,3.64
2018-02-06T02:26:57.180Z,3.62
2018-02-06T02:29:24.681Z,3.59
2018-02-06T02:31:52.180Z,3.57
2018-02-06T02:34:19.659Z,3.53
2018-02-06T02:36:47.313Z,3.50
2018-02-06T02:39:14.853Z,3.40
2018-02-06T02:41:42.435Z,3.35
2018-02-06T04:39:45.924Z,2.94
2018-02-06T04:42:13.413Z,2.92
2018-02-06T04:44:41.003Z,2.86
2018-02-06T04:47:09.069Z,2.83
2018-02-06T04:49:36.678Z,2.93
2018-02-06T04:52:04.778Z,2.98
2018-02-06T04:54:32.302Z,3.08
2018-02-06T04:57:00.275Z,3.12
2018-02-06T04:59:28.458Z,3.07
2018-02-06T05:01:55.934Z,3.19
2018-02-06T05:04:23.555Z,3.30
2018-02-06T05:06:51.142Z,3.37
2018-02-06T05:09:18.757Z,3.29
2018-02-06T05:11:46.301Z,3.26
2018-02-06T05:14:13.863Z,3.25
2018-02-06T05:16:41.401Z,3.25
2018-02-06T05:19:08.990Z,3.14
2018-02-06T05:21:36.557Z,3.09
2018-02-06T05:24:04.032Z,3.10
2018-02-06T05:26:31.550Z,3.14
2018-02-06T05:28:59.050Z,3.13
2018-02-06T05:31:26.621Z,3.11
2018-02-06T05:33:54.134Z,3.06
2018-02-06T05:36:21.610Z,3.10
2018-02-06T05:38:49.124Z,3.17
2018-02-06T05:41:16.628Z,3.10
2018-02-06T05:43:44.142Z,3.01
2018-02-06T05:46:11.684Z,2.94
2018-02-06T05:48:39.232Z,2.91
2018-02-06T05:51:06.729Z,2.90
2018-02-06T05:53:34.214Z,2.97
2018-02-06T05:56:01.916Z,3.14
2018-02-06T05:58:29.412Z,3.17
2018-02-06T06:00:57.029Z,3.07
2018-02-06T06:03:24.639Z,3.13
2018-02-06T06:05:52.243Z,3.17
2018-02-06T06:08:21.958Z,3.22
2018-02-06T06:10:49.515Z,3.20
2018-02-06T06:13:17.091Z,3.09
2018-02-06T06:15:44.573Z,2.98
2018-02-06T06:18:12.069Z,3.02
2018-02-06T06:20:39.546Z,3.09
2018-02-06T06:23:07.108Z,3.16
2018-02-06T06:25:34.653Z,3.21
2018-02-06T06:28:02.233Z,3.28
2018-02-06T06:30:29.735Z,3.27
2018-02-06T06:32:57.220Z,3.34
2018-02-06T06:35:24.729Z,3.32
2018-02-06T06:37:52.238Z,3.31
2018-02-06T06:40:19.743Z,3.26
2018-02-06T06:42:47.254Z,3.24
2018-02-06T06:45:14.798Z,3.23
2018-02-06T06:47:42.352Z,3.06
2018-02-06T06:50:09.891Z,3.09
2018-02-06T06:52:37.418Z,3.14
2018-02-06T06:55:05.116Z,3.14
2018-02-06T06:57:32.660Z,3.11
2018-02-06T07:00:00.198Z,3.05
2018-02-06T07:02:27.796Z,3.08
2018-02-06T07:04:55.299Z,3.16
2018-02-06T07:07:22.816Z,3.22
2018-02-06T07:09:50.368Z,3.28
2018-02-06T07:12:17.922Z,3.38
2018-02-06T07:14:45.398Z,3.39
2018-02-06T07:17:12.916Z,3.41
2018-02-06T07:19:40.420Z,3.40
2018-02-06T07:22:07.930Z,3.42
2018-02-06T07:24:35.431Z,3.43
2018-02-06T07:27:02.957Z,3.44
2018-02-06T07:29:30.522Z,3.47
2018-02-06T07:31:58.079Z,3.45
2018-02-06T07:34:25.688Z,3.43
2018-02-06T07:36:53.209Z,3.40
2018-02-06T07:39:20.732Z,3.41
2018-02-06T07:41:48.257Z,3.33
2018-02-06T07:44:15.740Z,3.38
2018-02-06T07:46:43.220Z,3.44
2018-02-06T07:49:10.734Z,3.44
2018-02-06T07:51:38.264Z,3.36
2018-02-06T07:54:05.742Z,3.45
2018-02-06T07:56:33.248Z,3.59
2018-02-06T07:59:00.758Z,3.59
2018-02-06T08:01:28.278Z,3.66
2018-02-06T08:03:55.765Z,3.76
2018-02-06T08:06:23.279Z,3.80
2018-02-06T08:08:50.776Z,3.80
2018-02-06T08:11:18.314Z,3.86
2018-02-06T08:13:46.025Z,3.91
2018-02-06T08:16:13.599Z,3.98
2018-02-06T08:18:41.192Z,4.06
2018-02-06T08:21:08.691Z,4.14
2018-02-06T08:23:36.428Z,4.19
2018-02-06T08:26:03.943Z,4.25
2018-02-06T08:28:31.515Z,4.50
2018-02-06T08:30:59.015Z,5.13
2018-02-06T08:33:26.534Z,6.07
2018-02-06T08:35:55.392Z,6.92
2018-02-06T08:38:24.030Z,7.05
2018-02-06T08:40:51.654Z,6.81
2018-02-06T08:43:19.282Z,6.99
2018-02-06T08:45:46.793Z,7.03
2018-02-06T08:48:14.760Z,7.01
2018-02-06T08:50:42.279Z,7.02
2018-02-06T08:53:09.811Z,7.09
2018-02-06T08:55:37.288Z,7.03
2018-02-06T08:58:04.825Z,7.02
2018-02-06T09:00:32.319Z,7.05
2018-02-06T09:02:59.844Z,6.95
2018-02-06T09:05:27.340Z,6.91
2018-02-06T09:07:54.882Z,6.80
2018-02-06T09:10:22.375Z,6.85
2018-02-06T09:12:49.875Z,6.85
2018-02-06T09:15:17.397Z,6.94
2018-02-06T09:17:44.899Z,6.92
2018-02-06T09:20:12.421Z,6.81
2018-02-06T09:22:39.918Z,6.83
2018-02-06T09:25:07.426Z,6.72
2018-02-06T09:27:34.926Z,6.77
2018-02-06T09:30:02.470Z,6.87
2018-02-06T09:32:29.965Z,6.85
2018-02-06T09:34:57.499Z,6.95
2018-02-06T09:37:25.025Z,7.20
2018-02-06T09:39:52.564Z,7.38
2018-02-06T09:42:20.069Z,7.72
2018-02-06T09:44:47.626Z,7.93
2018-02-06T09:47:15.248Z,8.11
2018-02-06T09:49:42.757Z,8.15
2018-02-06T09:52:10.266Z,8.05
2018-02-06T09:54:38.259Z,8.14
2018-02-06T09:57:05.765Z,8.10
2018-02-06T09:59:33.304Z,8.17
2018-02-06T10:02:00.823Z,8.32
2018-02-06T10:04:28.364Z,8.18
2018-02-06T10:06:55.860Z,8.25
2018-02-06T10:09:23.610Z,8.43
2018-02-06T10:11:51.121Z,8.41
2018-02-06T10:14:18.644Z,8.24
2018-02-06T10:16:46.225Z,8.03
2018-02-06T10:19:13.730Z,8.11
2018-02-06T10:21:41.235Z,8.17
2018-02-06T10:24:09.268Z,7.93
2018-02-06T10:26:36.878Z,8.16
2018-02-06T10:29:04.511Z,8.39
2018-02-06T10:31:32.040Z,8.68
2018-02-06T10:33:59.565Z,8.66
2018-02-06T10:36:27.162Z,8.67
2018-02-06T10:38:54.779Z,8.81
2018-02-06T10:41:22.324Z,8.83
2018-02-06T10:43:49.945Z,8.81
2018-02-06T10:46:17.415Z,9.04
2018-02-06T10:48:44.933Z,9.01
2018-02-06T10:51:12.412Z,8.82
2018-02-06T10:53:39.894Z,8.54
2018-02-06T10:56:07.420Z,8.65
2018-02-06T10:58:34.914Z,8.89
2018-02-06T11:01:02.417Z,8.82
2018-02-06T11:03:29.919Z,8.87
2018-02-06T11:05:57.447Z,8.91
2018-02-06T11:08:24.993Z,8.85
2018-02-06T11:10:52.465Z,8.84
2018-02-06T11:13:19.986Z,9.05
2018-02-06T11:15:47.500Z,9.32
2018-02-06T11:18:15.025Z,9.43
2018-02-06T11:20:42.546Z,9.90
2018-02-06T11:23:10.039Z,10.62
2018-02-06T11:25:37.548Z,11.45
2018-02-06T11:28:05.073Z,12.10
2018-02-06T11:30:32.563Z,12.39
2018-02-06T11:33:00.065Z,12.59
2018-02-06T11:35:27.575Z,12.81
2018-02-06T11:37:55.069Z,12.67
2018-02-06T11:40:22.651Z,12.66
2018-02-06T11:42:50.146Z,12.45
2018-02-06T11:45:17.721Z,11.96
2018-02-06T11:47:45.311Z,11.58
2018-02-06T11:50:12.863Z,11.54
2018-02-06T11:52:40.469Z,11.63
2018-02-06T11:55:08.089Z,11.53
2018-02-06T11:57:35.611Z,11.52
2018-02-06T12:00:03.123Z,11.62
2018-02-06T12:02:30.646Z,11.50
2018-02-06T12:04:58.122Z,11.90
2018-02-06T12:07:25.642Z,12.64
2018-02-06T12:09:53.118Z,13.15
2018-02-06T12:12:20.651Z,13.53
2018-02-06T12:14:48.162Z,13.87
2018-02-06T12:17:15.664Z,14.25
2018-02-06T12:19:43.192Z,14.87
2018-02-06T12:22:10.671Z,15.24
2018-02-06T12:24:38.171Z,15.30
2018-02-06T12:27:05.655Z,15.44
2018-02-06T14:42:42.869Z,11.35
2018-02-06T14:45:10.354Z,11.33
2018-02-06T14:47:37.854Z,11.29
2018-02-06T14:50:05.357Z,11.30
2018-02-06T14:52:32.861Z,11.35
2018-02-06T14:55:00.526Z,11.36
2018-02-06T14:57:28.047Z,11.43
2018-02-06T14:59:55.649Z,11.22
2018-02-06T15:02:23.279Z,11.17
2018-02-06T15:04:50.855Z,11.02
2018-02-06T15:07:18.464Z,10.71
2018-02-06T15:09:45.990Z,10.76
2018-02-06T15:12:13.504Z,10.83
2018-02-06T15:14:40.991Z,10.71
2018-02-06T15:17:08.558Z,10.52
2018-02-06T15:19:36.030Z,10.43
2018-02-06T15:22:03.570Z,10.30
2018-02-06T15:24:31.059Z,10.23
2018-02-06T15:26:58.574Z,10.20
2018-02-06T15:29:26.069Z,10.23
2018-02-06T15:31:53.574Z,10.17
2018-02-06T15:34:21.106Z,9.92
2018-02-06T15:36:48.594Z,9.78
2018-02-06T15:39:16.142Z,9.83
2018-02-06T15:41:43.638Z,9.83
2018-02-06T15:44:11.182Z,9.65
2018-02-06T15:46:39.529Z,9.40
2018-02-06T15:49:07.010Z,9.01
2018-02-06T15:51:34.524Z,8.70
2018-02-06T15:54:02.098Z,8.49
2018-02-06T15:56:29.658Z,8.34
2018-02-06T15:58:57.199Z,8.21
2018-02-06T16:01:24.719Z,8.16
2018-02-06T16:03:52.239Z,8.03
2018-02-06T16:06:19.746Z,7.98
2018-02-06T16:08:47.332Z,8.12
2018-02-06T16:11:15.647Z,8.19
2018-02-06T16:13:44.034Z,7.99
2018-02-06T16:16:11.579Z,7.89
2018-02-06T16:18:39.232Z,7.76
2018-02-06T16:21:06.741Z,7.59
2018-02-06T16:23:34.231Z,7.38
2018-02-06T16:26:02.527Z,7.28
2018-02-06T16:28:30.060Z,7.09
2018-02-06T16:30:57.557Z,6.99
2018-02-06T16:33:25.071Z,6.81
2018-02-06T16:35:52.573Z,6.63
2018-02-06T16:38:20.216Z,6.58
2018-02-06T16:40:47.692Z,6.65
2018-02-06T16:43:15.224Z,6.61
2018-02-06T16:45:42.708Z,6.72
2018-02-06T16:48:10.217Z,6.92
2018-02-06T16:50:37.994Z,7.13
2018-02-06T16:53:05.540Z,7.20
2018-02-06T16:55:33.075Z,7.23
2018-02-06T16:58:01.259Z,7.16
2018-02-06T17:00:28.831Z,7.05
2018-02-06T17:02:56.380Z,6.93
2018-02-06T17:05:23.886Z,6.88
2018-02-06T17:07:51.480Z,6.84
2018-02-06T17:10:19.071Z,6.93
2018-02-06T17:12:46.612Z,6.94
2018-02-06T17:15:14.174Z,6.72
2018-02-06T17:17:41.736Z,6.38
2018-02-06T17:20:13.267Z,6.19
2018-02-06T17:22:40.829Z,6.13
2018-02-06T17:25:10.084Z,6.09
2018-02-06T17:27:39.545Z,6.16
2018-02-06T17:30:09.241Z,6.11
2018-02-06T17:32:38.672Z,6.05
2018-02-06T17:35:08.045Z,6.08
2018-02-06T17:37:37.362Z,6.13
2018-02-06T17:40:07.234Z,6.17
2018-02-06T17:42:36.482Z,6.18
2018-02-06T17:45:05.596Z,6.26
2018-02-06T17:47:35.220Z,6.22
2018-02-06T17:50:08.282Z,6.17
2018-02-06T17:52:38.052Z,6.09
2018-02-06T17:55:07.125Z,6.02
2018-02-06T17:57:36.065Z,6.05
2018-02-06T18:00:06.351Z,5.96
2018-02-06T18:02:36.342Z,5.88
2018-02-06T18:05:05.465Z,5.86
2018-02-06T18:07:35.645Z,5.83
2018-02-06T18:10:05.703Z,5.90
2018-02-06T18:12:34.920Z,5.83
2018-02-06T18:15:04.392Z,5.70
2018-02-06T18:17:33.865Z,5.53
2018-02-06T18:20:05.498Z,5.39
2018-02-06T18:22:34.741Z,5.32
2018-02-06T18:25:03.533Z,5.39
2018-02-06T18:27:31.088Z,5.43
2018-02-06T18:29:58.591Z,5.51
2018-02-06T18:32:26.131Z,5.64
2018-02-06T18:34:53.635Z,5.74
2018-02-06T18:37:21.185Z,5.72
2018-02-06T18:39:48.717Z,5.72
2018-02-06T18:42:16.269Z,5.66
2018-02-06T18:44:43.787Z,5.65
2018-02-06T18:47:11.282Z,5.69
2018-02-06T18:49:38.801Z,5.75
2018-02-06T18:52:06.314Z,5.75
2018-02-06T18:54:33.863Z,5.72
2018-02-06T18:57:01.434Z,5.70
2018-02-06T18:59:29.079Z,5.67
2018-02-06T19:01:56.590Z,5.72
2018-02-06T19:04:24.084Z,5.79
2018-02-06T19:06:52.004Z,5.75
2018-02-06T19:09:20.239Z,5.82
2018-02-06T19:11:49.342Z,5.79
2018-02-06T19:14:18.319Z,5.78
2018-02-06T19:16:46.879Z,5.70
2018-02-06T19:19:14.985Z,5.61
2018-02-06T19:21:43.608Z,5.51
2018-02-06T19:24:13.118Z,5.48
2018-02-06T19:26:41.176Z,5.44
2018-02-06T19:29:10.528Z,5.42
2018-02-06T19:31:40.316Z,5.45
2018-02-06T19:34:09.065Z,5.48
2018-02-06T19:36:37.899Z,5.52
2018-02-06T19:39:07.915Z,5.57
2018-02-06T19:41:36.897Z,5.61
2018-02-06T19:44:06.185Z,5.62
2018-02-06T19:46:35.377Z,5.63
2018-02-06T19:49:03.065Z,5.60
2018-02-06T19:51:31.002Z,5.66
2018-02-06T19:53:58.505Z,5.64
2018-02-06T19:56:26.012Z,5.64
2018-02-06T19:58:53.553Z,5.66
2018-02-06T20:01:21.897Z,5.64
2018-02-06T20:03:49.480Z,5.59
2018-02-06T20:06:17.123Z,5.56
2018-02-06T20:08:44.710Z,5.59
2018-02-06T20:11:12.309Z,5.61
2018-02-06T20:13:39.922Z,5.62
2018-02-06T20:16:07.510Z,5.54
2018-02-06T20:18:35.074Z,5.52
2018-02-06T20:21:02.610Z,5.49
2018-02-06T20:23:30.140Z,5.42
2018-02-06T20:25:57.677Z,5.39
2018-02-06T20:28:25.187Z,5.42
2018-02-06T20:30:52.819Z,5.40
2018-02-06T20:33:20.464Z,5.33
2018-02-06T20:35:48.009Z,5.40
2018-02-06T20:38:15.520Z,5.39
2018-02-06T20:40:43.060Z,5.40
2018-02-06T20:43:10.582Z,5.41
2018-02-06T20:45:38.079Z,5.39
2018-02-06T20:48:05.623Z,5.33
2018-02-06T20:50:33.274Z,5.33
2018-02-06T20:53:00.773Z,5.31
2018-02-06T20:55:28.309Z,5.31
2018-02-06T20:57:55.804Z,5.30
2018-02-06T21:00:23.333Z,5.27
2018-02-06T21:02:50.855Z,5.25
2018-02-06T21:05:18.590Z,5.17
2018-02-06T21:07:46.117Z,5.17
2018-02-06T21:10:13.645Z,5.11
2018-02-06T21:12:41.198Z,5.13
2018-02-06T21:15:08.697Z,5.12
2018-02-06T21:17:36.241Z,5.19
2018-02-06T21:20:03.738Z,5.24
2018-02-06T21:22:31.308Z,5.26
2018-02-06T21:24:58.849Z,5.23
2018-02-06T21:27:26.406Z,5.23
2018-02-06T21:29:53.903Z,5.21
2018-02-06T21:32:21.413Z,5.10
2018-02-06T21:34:48.921Z,5.11
2018-02-06T21:37:16.427Z,5.13
2018-02-06T21:39:43.956Z,5.12
2018-02-06T21:42:11.440Z,5.10
2018-02-06T21:44:39.474Z,5.08
2018-02-06T21:47:06.986Z,5.10
2018-02-06T21:49:34.480Z,5.09
2018-02-06T21:52:02.028Z,5.08
2018-02-06T21:54:29.522Z,5.04
2018-02-06T21:56:57.064Z,5.00
2018-02-06T21:59:24.566Z,4.91
2018-02-06T22:01:52.156Z,4.82
2018-02-06T22:04:19.647Z,4.87
2018-02-06T22:06:47.255Z,4.82
2018-02-06T22:09:14.756Z,4.80
2018-02-06T22:11:42.243Z,4.83
2018-02-06T22:14:09.757Z,4.82
2018-02-06T22:16:37.248Z,4.72
2018-02-06T22:19:04.830Z,4.69
2018-02-06T22:21:32.323Z,4.76
2018-02-06T22:23:59.867Z,4.77
2018-02-06T22:26:27.361Z,4.77
2018-02-06T22:28:54.873Z,4.76
2018-02-06T22:31:22.415Z,4.70
2018-02-06T22:33:49.900Z,4.66
2018-02-06T22:36:17.397Z,4.66
2018-02-06T22:38:45.100Z,4.70
2018-02-06T22:41:12.604Z,4.73
2018-02-06T22:43:40.139Z,4.72
2018-02-06T22:46:07.640Z,4.69
2018-02-06T22:48:35.246Z,4.69
2018-02-06T22:51:02.745Z,4.72
2018-02-06T22:53:30.394Z,4.69
2018-02-06T22:55:57.919Z,4.68
2018-02-06T22:58:25.556Z,4.62
2018-02-06T23:00:53.125Z,4.65
2018-02-06T23:03:20.676Z,4.60
2018-02-06T23:05:48.351Z,4.58
2018-02-06T23:08:15.853Z,4.59
2018-02-06T23:10:43.393Z,4.55
2018-02-06T23:13:10.878Z,4.48
2018-02-06T23:15:39.107Z,4.48
2018-02-06T23:18:06.612Z,4.52
2018-02-06T23:20:34.098Z,4.51
2018-02-06T23:23:01.648Z,4.48
2018-02-06T23:25:29.150Z,4.43
2018-02-06T23:27:56.654Z,4.43
2018-02-06T23:30:24.181Z,4.40
2018-02-06T23:32:51.759Z,4.40
2018-02-06T23:35:19.443Z,4.40
2018-02-06T23:37:47.788Z,4.41
2018-02-06T23:40:15.354Z,4.42
2018-02-06T23:42:42.855Z,4.39
2018-02-06T23:45:10.386Z,4.41
2018-02-06T23:47:38.402Z,4.43
2018-02-06T23:50:06.000Z,4.36
2018-02-06T23:52:33.512Z,4.35
2018-02-06T23:55:01.081Z,4.33
2018-02-06T23:57:28.662Z,4.33
2018-02-06T23:59:56.354Z,4.29
